»·PEaware :: N2MZ KSNA-KVCV

N2MZ :: KSNA-KVCV

FLIGHT INFORMATION

Flight Status: Arrived
Operator: Privately registered:
United States
More flights under this callsign
Pilot: Mike Z. (25595)
Aircraft: CESSNA 172 SKYHAWK
(C172)
More flights by this aircraft type
Origin: KSNA John Wayne-Orange Co
United States
Destination: KVCV Socal Logistics
United States
More flights between these airports :: More routes between these airports
Route: +SLI V8 PDZ V442 APLES
File this flight plan on PilotEdge
Remarks:
Altitude:
(Current/Filed)
9,000ft
Speed:
(Current/Filed)
115kts
Departed: 28-Oct-19 05:55 PM
Arrived: 28-Oct-19 06:58 PM
Distance/Time
Traveled:
60nm/1:03
Distance/Time
To Go:
Arrived

Flight Plot

Page will automatically refresh every two minutes.


Map Options




Map Legend


Flown Route
Filed Route
Departure Airport
Arrival Airport
Navaid (VOR, NDB)
Fix

Horizontal Profiles

Position Reports

Time Latitude Longitude Heading Altitude Ground
Speed
28-Oct-19 17:40 33.671189 -117.868027 210 60ft 0kts
28-Oct-19 17:41 33.671189 -117.868027 210 60ft 0kts
28-Oct-19 17:42 33.671189 -117.868027 210 60ft 0kts
28-Oct-19 17:43 33.671189 -117.868027 210 60ft 0kts
28-Oct-19 17:44 33.671189 -117.868027 210 60ft 0kts
28-Oct-19 17:45 33.671189 -117.868027 210 60ft 0kts
28-Oct-19 17:46 33.671189 -117.868027 210 60ft 0kts
28-Oct-19 17:47 33.671189 -117.868027 210 60ft 0kts
28-Oct-19 17:48 33.671189 -117.868027 210 60ft 0kts
28-Oct-19 17:49 33.672974 -117.867419 47 60ft 25kts
28-Oct-19 17:50 33.675496 -117.866206 27 60ft 23kts
28-Oct-19 17:51 33.679948 -117.863595 309 60ft 0kts
28-Oct-19 17:52 33.679948 -117.863595 309 60ft 0kts
28-Oct-19 17:53 33.679948 -117.863595 309 60ft 0kts
28-Oct-19 17:53 33.680045 -117.863789 297 60ft 8kts
28-Oct-19 17:55 33.667924 -117.880626 273 547ft 81kts
28-Oct-19 17:56 33.661976 -117.907145 236 1276ft 85kts
28-Oct-19 17:56 33.651936 -117.927575 240 1880ft 86kts
28-Oct-19 17:57 33.645816 -117.954848 343 2295ft 85kts
28-Oct-19 17:59 33.671688 -117.946768 16 2868ft 80kts
28-Oct-19 17:59 33.690404 -117.941591 13 3218ft 82kts
28-Oct-19 18:00 33.708910 -117.935959 15 3634ft 79kts
28-Oct-19 18:01 33.734100 -117.927403 19 4089ft 97kts
28-Oct-19 18:02 33.751946 -117.905624 48 4750ft 85kts
28-Oct-19 18:03 33.766918 -117.885001 48 5338ft 78kts
28-Oct-19 18:04 33.781246 -117.865297 48 5790ft 86kts
28-Oct-19 18:05 33.798629 -117.843099 42 6197ft 95kts
28-Oct-19 18:06 33.817678 -117.821635 42 6695ft 90kts
28-Oct-19 18:07 33.835048 -117.802100 42 7207ft 82kts
28-Oct-19 18:08 33.851792 -117.785034 45 7688ft 74kts
28-Oct-19 18:09 33.859766 -117.759767 71 8020ft 84kts
28-Oct-19 18:10 33.867259 -117.733109 71 8417ft 82kts
28-Oct-19 18:11 33.874607 -117.706942 71 8817ft 82kts
28-Oct-19 18:12 33.882318 -117.679389 71 9019ft 100kts
28-Oct-19 18:13 33.891996 -117.644353 71 9012ft 114kts
28-Oct-19 18:14 33.902053 -117.607812 71 9011ft 115kts
28-Oct-19 18:15 33.912184 -117.570930 71 9011ft 116kts
28-Oct-19 18:16 33.925570 -117.536554 32 9013ft 115kts
28-Oct-19 18:17 33.953254 -117.516288 32 9011ft 117kts
28-Oct-19 18:18 33.980361 -117.494342 33 9011ft 117kts
28-Oct-19 18:19 34.008141 -117.473665 29 9011ft 117kts
28-Oct-19 18:20 34.036860 -117.454518 26 9011ft 117kts
28-Oct-19 18:21 34.066144 -117.436964 26 9011ft 117kts
28-Oct-19 18:22 34.095435 -117.419263 26 9010ft 116kts
28-Oct-19 18:23 34.124271 -117.401861 26 9011ft 115kts
28-Oct-19 18:24 34.152946 -117.384459 26 9011ft 115kts
28-Oct-19 18:25 34.181431 -117.367108 26 9011ft 114kts
28-Oct-19 18:26 34.209733 -117.349834 26 9011ft 114kts
28-Oct-19 18:27 34.238291 -117.332061 27 9011ft 114kts
28-Oct-19 18:28 34.267657 -117.317474 21 9011ft 114kts
28-Oct-19 18:29 34.297038 -117.302403 23 9011ft 114kts
28-Oct-19 18:30 34.326084 -117.286394 24 9011ft 114kts
28-Oct-19 18:31 34.354917 -117.269961 25 9011ft 114kts
28-Oct-19 18:32 34.383662 -117.253307 25 9011ft 114kts
28-Oct-19 18:33 34.412874 -117.236243 25 8932ft 120kts
28-Oct-19 18:34 34.440081 -117.213991 33 8937ft 116kts
28-Oct-19 18:35 34.467362 -117.193852 29 8937ft 114kts
28-Oct-19 18:36 34.494961 -117.175455 25 8937ft 112kts
28-Oct-19 18:37 34.524109 -117.161818 20 8937ft 112kts
28-Oct-19 18:38 34.553738 -117.148337 20 8769ft 122kts
28-Oct-19 18:39 34.587754 -117.139486 0 8277ft 128kts
28-Oct-19 18:40 34.622870 -117.144938 348 7773ft 122kts
28-Oct-19 18:41 34.652684 -117.154394 338 7547ft 104kts
28-Oct-19 18:42 34.678786 -117.166705 338 7336ft 97kts
28-Oct-19 18:43 34.702800 -117.181185 326 7139ft 99kts
28-Oct-19 18:44 34.727748 -117.201577 320 6765ft 117kts
28-Oct-19 18:45 34.749960 -117.230162 306 6533ft 107kts
28-Oct-19 18:46 34.766124 -117.260304 295 6543ft 107kts
28-Oct-19 18:47 34.779258 -117.293568 295 6407ft 118kts
28-Oct-19 18:48 34.791907 -117.329064 287 5902ft 112kts
28-Oct-19 18:49 34.779749 -117.356177 187 5101ft 114kts
28-Oct-19 18:50 34.750310 -117.369864 210 4358ft 110kts
28-Oct-19 18:51 34.725297 -117.380326 187 4252ft 82kts
28-Oct-19 18:52 34.704145 -117.383016 184 4188ft 71kts
28-Oct-19 18:53 34.683107 -117.383982 178 4276ft 81kts
28-Oct-19 18:54 34.659086 -117.383158 187 3755ft 83kts
28-Oct-19 18:55 34.638711 -117.386979 179 3190ft 74kts
28-Oct-19 18:56 34.619483 -117.386767 180 2822ft 59kts
28-Oct-19 18:57 34.610545 -117.385176 90 2827ft 3kts
28-Oct-19 18:58 34.610537 -117.384767 99 2828ft 11kts
28-Oct-19 18:59 34.602418 -117.384108 179 2840ft 45kts
28-Oct-19 19:00 34.593621 -117.382521 137 2858ft 19kts
28-Oct-19 19:01 34.588721 -117.377714 226 2870ft 19kts
28-Oct-19 19:02 34.584627 -117.379324 99 2878ft 0kts
28-Oct-19 19:03 34.584627 -117.379324 99 2878ft 0kts
28-Oct-19 19:04 34.584627 -117.379324 99 2878ft 0kts
28-Oct-19 19:05 34.584627 -117.379324 99 2878ft 0kts
28-Oct-19 19:06 34.584627 -117.379324 99 2878ft 0kts
28-Oct-19 19:07 34.584627 -117.379324 99 2878ft 0kts
28-Oct-19 19:08 34.584627 -117.379324 99 2878ft 0kts
28-Oct-19 19:09 34.584627 -117.379324 99 2878ft 0kts
28-Oct-19 19:10 34.584627 -117.379324 99 2878ft 0kts
28-Oct-19 19:11 34.584627 -117.379324 99 2878ft 0kts

Navigation Log

Ident Type
Flight plan parsing failed, navigation log unavailable